createdAt,value
2022-07-30T00:05:01.735Z,8.43
2022-07-30T00:10:08.035Z,8.02
2022-07-30T00:15:14.163Z,8.32
2022-07-30T00:20:20.139Z,10.05
2022-07-30T00:25:26.257Z,10.98
2022-07-30T00:30:31.949Z,9.05
2022-07-30T00:35:38.003Z,8.95
2022-07-30T00:40:44.047Z,9.20
2022-07-30T00:45:50.386Z,9.45
2022-07-30T00:50:55.990Z,10.88
2022-07-30T00:56:03.143Z,9.65
2022-07-30T01:01:09.212Z,13.30
2022-07-30T01:06:15.547Z,13.57
2022-07-30T01:11:21.499Z,12.07
2022-07-30T01:16:27.957Z,10.98
2022-07-30T01:21:40.170Z,12.80
2022-07-30T01:26:46.497Z,11.20
2022-07-30T01:31:57.003Z,11.68
2022-07-30T01:37:04.773Z,14.30
2022-07-30T01:42:12.732Z,14.75
2022-07-30T01:47:20.466Z,15.85
2022-07-30T01:52:32.700Z,21.98
2022-07-30T01:57:40.793Z,16.38
2022-07-30T02:02:48.110Z,16.58
2022-07-30T02:08:00.531Z,18.65
2022-07-30T02:13:10.409Z,17.30
2022-07-30T02:18:35.217Z,21.70
2022-07-30T02:23:50.904Z,36.75
2022-07-30T02:29:02.053Z,38.22
2022-07-30T02:34:09.319Z,22.65
2022-07-30T02:39:16.949Z,27.55
2022-07-30T02:44:24.183Z,24.15
2022-07-30T02:49:33.814Z,23.95
2022-07-30T02:54:43.622Z,24.40
2022-07-30T02:59:51.073Z,26.35
2022-07-30T03:04:59.008Z,27.50
2022-07-30T03:10:11.459Z,23.98
2022-07-30T03:15:18.788Z,29.45
2022-07-30T03:20:31.533Z,27.55
2022-07-30T03:25:39.337Z,29.40
2022-07-30T03:30:46.246Z,30.27
2022-07-30T03:35:54.478Z,28.15
2022-07-30T03:41:01.579Z,27.50
2022-07-30T03:46:09.580Z,26.90
2022-07-30T03:51:20.120Z,26.38
2022-07-30T03:56:26.856Z,27.55
2022-07-30T04:01:41.448Z,28.00
2022-07-30T04:07:00.581Z,27.42
2022-07-30T04:12:08.040Z,23.80
2022-07-30T04:17:37.547Z,26.05
2022-07-30T04:22:45.026Z,25.23
2022-07-30T04:28:01.881Z,32.30
2022-07-30T04:33:10.564Z,33.72
2022-07-30T04:38:20.068Z,30.15
2022-07-30T04:43:29.296Z,31.58
2022-07-30T04:48:36.765Z,33.60
2022-07-30T04:53:50.924Z,29.02
2022-07-30T04:58:59.174Z,30.23
2022-07-30T05:04:07.039Z,26.23
2022-07-30T05:09:13.525Z,30.95
2022-07-30T05:14:19.990Z,26.77
2022-07-30T05:19:26.767Z,27.85
2022-07-30T05:30:54.140Z,27.75
2022-07-30T05:36:02.078Z,30.40
2022-07-30T05:41:30.741Z,29.75
2022-07-30T05:46:41.102Z,29.63
2022-07-30T05:51:47.803Z,28.83
2022-07-30T05:56:57.000Z,28.13
2022-07-30T06:02:16.539Z,27.63
2022-07-30T06:07:48.661Z,29.42
2022-07-30T06:12:58.022Z,27.52
2022-07-30T06:18:04.165Z,24.95
2022-07-30T06:23:31.372Z,23.88
2022-07-30T06:28:48.804Z,22.98
2022-07-30T06:34:01.225Z,23.85
2022-07-30T06:39:12.172Z,22.00
2022-07-30T06:44:41.053Z,19.13
2022-07-30T06:50:03.001Z,21.92
2022-07-30T06:55:10.291Z,20.83
2022-07-30T07:00:26.324Z,22.50
2022-07-30T07:05:32.730Z,22.73
2022-07-30T07:10:39.319Z,22.27
2022-07-30T07:15:55.750Z,22.38
2022-07-30T07:21:12.017Z,21.35
2022-07-30T07:26:19.097Z,16.60
2022-07-30T07:32:06.805Z,19.50
2022-07-30T07:36:52.088Z,18.02
2022-07-30T07:41:59.367Z,18.50
2022-07-30T07:47:59.278Z,18.92
2022-07-30T07:53:30.403Z,19.38
2022-07-30T07:58:38.127Z,17.60
2022-07-30T08:03:49.279Z,17.63
2022-07-30T08:09:15.264Z,23.52
2022-07-30T08:14:39.514Z,22.40
2022-07-30T08:20:04.639Z,22.55
2022-07-30T08:25:23.182Z,21.95
2022-07-30T08:30:31.912Z,24.42
2022-07-30T08:35:38.649Z,20.33
2022-07-30T08:40:57.950Z,21.60
2022-07-30T08:46:05.172Z,20.90
2022-07-30T08:51:29.300Z,21.83
2022-07-30T08:57:01.849Z,22.08
2022-07-30T09:02:13.395Z,22.52
2022-07-30T09:07:39.813Z,21.92
2022-07-30T09:12:51.096Z,19.50
2022-07-30T09:18:09.040Z,20.00
2022-07-30T09:23:16.274Z,21.13
2022-07-30T09:28:40.045Z,21.47
2022-07-30T09:33:57.809Z,16.92
2022-07-30T09:39:59.204Z,21.67
2022-07-30T09:45:34.861Z,21.05
2022-07-30T09:50:51.121Z,21.95
2022-07-30T09:55:57.875Z,21.73
2022-07-30T10:01:04.587Z,25.30
2022-07-30T10:06:42.054Z,20.80
2022-07-30T10:11:58.241Z,19.13
2022-07-30T10:17:06.638Z,11.48
2022-07-30T10:22:17.014Z,16.77
2022-07-30T10:27:38.524Z,12.98
2022-07-30T10:32:58.504Z,17.08
2022-07-30T10:38:06.411Z,17.38
2022-07-30T10:43:38.390Z,17.20
2022-07-30T10:48:44.097Z,28.60
2022-07-30T10:53:50.305Z,20.70
2022-07-30T10:59:05.560Z,22.90
2022-07-30T11:04:35.414Z,19.33
2022-07-30T11:09:45.396Z,16.15
2022-07-30T11:15:19.023Z,17.70
2022-07-30T11:20:25.419Z,12.10
2022-07-30T11:25:50.485Z,15.15
2022-07-30T11:30:58.176Z,11.65
2022-07-30T11:36:12.343Z,11.13
2022-07-30T11:41:18.118Z,11.18
2022-07-30T11:46:28.598Z,8.48
2022-07-30T11:51:46.678Z,7.78
2022-07-30T11:56:54.542Z,7.68
2022-07-30T12:02:03.184Z,7.70
2022-07-30T12:07:09.401Z,8.15
2022-07-30T12:12:28.752Z,8.80
2022-07-30T12:17:49.584Z,10.45
2022-07-30T12:22:58.495Z,12.20
2022-07-30T12:28:05.174Z,11.35
2022-07-30T12:33:10.948Z,16.67
2022-07-30T12:38:18.412Z,19.25
2022-07-30T12:43:47.721Z,18.27
2022-07-30T12:48:58.463Z,16.52
2022-07-30T12:54:22.401Z,15.88
2022-07-30T12:59:29.614Z,15.35
2022-07-30T13:04:39.954Z,21.65
2022-07-30T13:10:20.376Z,12.73
2022-07-30T13:15:32.171Z,19.02
2022-07-30T13:20:55.553Z,24.50
2022-07-30T13:26:14.129Z,24.85
2022-07-30T13:31:28.431Z,23.48
2022-07-30T13:36:49.125Z,18.10
2022-07-30T13:42:04.367Z,16.67
2022-07-30T13:47:10.406Z,17.67
2022-07-30T13:52:16.077Z,19.85
2022-07-30T13:57:22.219Z,19.33
2022-07-30T14:02:28.212Z,22.75
2022-07-30T14:07:38.752Z,22.27
2022-07-30T14:12:45.266Z,18.58
2022-07-30T14:17:56.176Z,18.83
2022-07-30T14:23:03.085Z,18.05
2022-07-30T14:28:08.687Z,16.15
2022-07-30T14:33:14.879Z,15.05
2022-07-30T14:38:20.820Z,12.32
2022-07-30T14:43:29.734Z,9.68
2022-07-30T14:48:35.642Z,7.15
2022-07-30T14:53:41.509Z,5.35
2022-07-30T14:58:53.024Z,4.68
2022-07-30T15:04:02.771Z,4.38
2022-07-30T15:09:10.581Z,4.57
2022-07-30T15:14:16.507Z,3.88
2022-07-30T15:19:26.024Z,3.47
2022-07-30T15:24:32.821Z,3.15
2022-07-30T15:29:38.694Z,4.47
2022-07-30T15:34:45.135Z,3.80
2022-07-30T15:39:50.833Z,4.32
2022-07-30T15:45:16.226Z,3.85
2022-07-30T15:50:22.643Z,4.00
2022-07-30T15:55:28.458Z,4.53
2022-07-30T16:00:35.027Z,4.53
2022-07-30T16:05:51.290Z,5.07
2022-07-30T16:10:58.256Z,4.20
2022-07-30T16:16:04.705Z,4.75
2022-07-30T16:21:10.556Z,5.10
2022-07-30T16:26:16.163Z,5.40
2022-07-30T16:31:22.247Z,4.97
2022-07-30T16:36:27.740Z,5.13
2022-07-30T16:41:33.384Z,6.57
2022-07-30T16:46:40.128Z,5.40
2022-07-30T16:51:45.557Z,6.20
2022-07-30T16:56:54.300Z,6.95
2022-07-30T17:02:00.355Z,8.48
2022-07-30T17:07:06.906Z,8.10
2022-07-30T17:12:12.702Z,8.23
2022-07-30T17:17:18.593Z,7.45
2022-07-30T17:22:24.868Z,8.80
2022-07-30T17:27:31.539Z,8.35
2022-07-30T17:32:37.086Z,8.98
2022-07-30T17:37:42.882Z,9.65
2022-07-30T17:42:48.863Z,10.98
2022-07-30T17:47:54.447Z,10.10
2022-07-30T17:53:00.026Z,10.65
2022-07-30T17:58:09.078Z,9.40
2022-07-30T18:03:14.941Z,9.35
2022-07-30T18:08:20.605Z,10.13
2022-07-30T18:13:27.873Z,11.00
2022-07-30T18:18:33.561Z,9.55
2022-07-30T18:23:39.201Z,10.98
2022-07-30T18:28:45.011Z,10.38
2022-07-30T18:33:50.919Z,9.68
2022-07-30T18:38:56.291Z,9.07
2022-07-30T18:44:01.863Z,8.52
2022-07-30T18:49:26.880Z,8.88
2022-07-30T18:54:33.361Z,8.52
2022-07-30T18:59:38.936Z,8.43
2022-07-30T19:04:44.597Z,8.80
2022-07-30T19:09:50.717Z,8.35
2022-07-30T19:14:57.194Z,8.30
2022-07-30T19:20:02.768Z,8.05
2022-07-30T19:30:14.264Z,7.97
2022-07-30T19:35:19.707Z,7.45
2022-07-30T19:51:07.592Z,7.57
2022-07-30T19:56:27.422Z,10.38
2022-07-30T20:01:40.278Z,8.73
2022-07-30T20:06:47.017Z,8.48
2022-07-30T20:11:52.565Z,8.23
2022-07-30T20:17:02.337Z,7.85
2022-07-30T20:22:08.350Z,6.45
2022-07-30T20:27:35.913Z,5.72
2022-07-30T20:32:46.395Z,5.50
2022-07-30T20:43:20.102Z,6.20
2022-07-30T20:48:30.199Z,5.45
2022-07-30T20:53:36.992Z,5.05
2022-07-30T20:58:46.066Z,5.05
2022-07-30T21:03:53.906Z,5.75
2022-07-30T21:09:02.636Z,5.47
2022-07-30T21:14:09.733Z,6.47
2022-07-30T21:19:18.511Z,6.07
2022-07-30T21:24:25.923Z,5.85
2022-07-30T21:29:31.967Z,5.78
2022-07-30T21:34:41.991Z,5.93
2022-07-30T21:40:03.194Z,6.05
2022-07-30T21:45:09.652Z,6.25
2022-07-30T21:50:16.628Z,7.63
2022-07-30T21:55:22.214Z,10.20
2022-07-30T22:00:48.163Z,7.13
2022-07-30T22:05:53.976Z,7.10
2022-07-30T22:11:00.293Z,8.98
2022-07-30T22:16:06.126Z,6.45
2022-07-30T22:21:11.470Z,6.32
2022-07-30T22:26:20.208Z,7.93
2022-07-30T22:31:26.772Z,7.97
2022-07-30T22:36:45.608Z,6.95
2022-07-30T22:41:51.683Z,8.13
2022-07-30T22:52:10.652Z,7.43
2022-07-30T22:57:25.295Z,7.45
2022-07-30T23:02:31.853Z,6.70
2022-07-30T23:07:39.773Z,6.15
2022-07-30T23:12:15.037Z,7.88
2022-07-30T23:12:18.317Z,5.93
2022-07-30T23:12:48.921Z,7.38
2022-07-30T23:17:54.897Z,6.72
2022-07-30T23:23:03.047Z,7.70
2022-07-30T23:28:08.682Z,6.53
2022-07-30T23:38:20.354Z,7.13
2022-07-30T23:43:25.870Z,7.15
2022-07-30T23:48:33.078Z,8.35
2022-07-30T23:53:39.234Z,7.68
2022-07-30T23:58:48.759Z,6.80
